Center Point, TX (78010)

12:15 AM CST on February 20, 2017 (GMT -0600)
China Street | | Change Station

Elev 1540 ft 29.94 °N, 99.03 °W | Updated 17 seconds ago

Rain
Rain
55.5 °F
Feels Like 55.5 °F
N
2.0
Wind Variable Wind from NNW

Today
High -- | Low -- °F
--% Chance of Precip.
Yesterday
High -- | Low -- °F
Precip. -- in
Pressure 29.93 in
Visibility 10.0 miles
Clouds Scattered Clouds 6000 ft
Scattered Clouds 7500 ft
Overcast 8500 ft
Dew Point 55 °F
Humidity 98%
Rainfall 0.04 in
Snow Depth Not available.
7:10 AM 6:29 PM
Last Quarter, 37% visible
METAR KERV 200555Z AUTO 06012KT 10SM TSRA SCT060 SCT075 OVC085 14/13 A2993 RMK AO2 LTG DSNT ALQS P0018 60067 T01350126 10242 20135 402610135
Pressure 29.93 in
Visibility 10.0 miles
Clouds Scattered Clouds 6000 ft
Scattered Clouds 7500 ft
Overcast 8500 ft
Dew Point 55 °F
Humidity 98%
Rainfall 0.04 in
Snow Depth Not available.
7:10 AM 6:29 PM
Last Quarter, 37% visible
METAR KERV 200555Z AUTO 06012KT 10SM TSRA SCT060 SCT075 OVC085 14/13 A2993 RMK AO2 LTG DSNT ALQS P0018 60067 T01350126 10242 20135 402610135

Get Your Daily Forecast Email!

Thanks for signing up!

Be on the lookout for a verification email in your inbox.

You'll start receiving the daily forecast at 8 AM.

×

10-Day Weather Forecast

Almanac

Astronomy

Feb. 20, 2017 Rise Set
Actual Time
Civil Twilight
Nautical Twilight
Astronomical Twilight
Moon
Length of Visible Light
Length of Day
Tomorrow will be .
, % of the Moon is Illuminated

Today's Extremes

State Highs State Lows

Community

WunderPhotos

Upload Photos

1,962,540 photos uploaded!

WunderBlog® & News

Nearby

Air Quality

  Air Quality AQ Index Pollutant
Not available.

Snow Depth

Station Depth Elevation

Earthquake Activity

City Distance Mag. Time & Date
Minimum magnitude displayed is 2.5.

Coastal Water Temperatures

Place Temperature

Stations

Nearby Weather Stations

Station Location Temp. Windchill Dew Point Humidity Wind Precip. Elev Updated Type
                   

Watches & Warnings

There are currently no watches in effect.